Accueil
METAR-TAF:

METAR-TAF

Aéroports :

Woensdrecht, Pays-Bas

latitude: 51-27N, longitude: 004-20E, altitude: 20 m

Observation

Le bulletin a été fait il y a 17 minutes, à 16:25 UTC
Vent 12 kt de nord-est, variant entre nord et est
Température 4°C
Humidité 52%
Pression 1022 hPa
Visibilité 10 km ou plus

METAR: EHWO 221625Z AUTO 05012KT 010V100 9999 NCD 04/M05 Q1022 BLU

Heure: 17:42 (16:42 UTC)

Prévision

Le bulletin a été fait il y a 7 heures et 15 minutes, à 09:27 UTC
Prévision valable du 22 à 10 UTC au 22 à 22 UTC
Vent 11 kt de est/nord-est
Visibilité 10 km ou plus
pas de nuages en-dessous de 1500 mètres et pas de cumulonimbus.
Temporairement
du 22 à 10 UTC au 22 à 16 UTC
Vent 11 kt de est avec des rafales jusqu'à 22 kt

TAF: EHWO 220927Z 2210/2222 07011KT CAVOK TEMPO 2210/2216 08011G22KT

Observations et prévisions météorologiques de plus de 4000 aéroports (messages METAR et TAF).

Les stations disponibles sont représentées par des disques jaunes et rouges sur la carte.

Passer la souris dessus pour voir le nom de la station.

Cliquer dessus pour voir les observations et prévisions météorologiques.

Pour changer de carte: cliquez sur les boutons verts avec une croix noire pour zoomer, sur le bouton vert avec un tiret pour effectuer un zoom arrière, ou sur les flèches vertes pour les cartes adjacentes.


METAR-TAF: